sensor_id;sensor_type;location;lat;lon;timestamp;temperature;humidity
921;DHT22;447;51.332;6.778;2022-09-12T00:01:11;20.20;90.80
921;DHT22;447;51.332;6.778;2022-09-12T00:03:37;20.20;90.80
921;DHT22;447;51.332;6.778;2022-09-12T00:06:18;20.20;90.80
921;DHT22;447;51.332;6.778;2022-09-12T00:08:44;20.20;90.80
921;DHT22;447;51.332;6.778;2022-09-12T00:11:11;20.20;90.80
921;DHT22;447;51.332;6.778;2022-09-12T00:13:39;20.20;90.80
921;DHT22;447;51.332;6.778;2022-09-12T00:16:07;20.20;90.80
921;DHT22;447;51.332;6.778;2022-09-12T00:18:33;20.10;91.00
921;DHT22;447;51.332;6.778;2022-09-12T00:21:03;20.10;90.70
921;DHT22;447;51.332;6.778;2022-09-12T00:23:30;20.20;90.70
921;DHT22;447;51.332;6.778;2022-09-12T00:26:02;20.10;90.60
921;DHT22;447;51.332;6.778;2022-09-12T00:28:46;20.10;90.60
921;DHT22;447;51.332;6.778;2022-09-12T00:31:14;20.10;90.60
921;DHT22;447;51.332;6.778;2022-09-12T00:33:45;20.10;90.60
921;DHT22;447;51.332;6.778;2022-09-12T00:36:14;20.10;90.90
921;DHT22;447;51.332;6.778;2022-09-12T00:38:43;20.10;90.50
921;DHT22;447;51.332;6.778;2022-09-12T00:41:17;20.10;90.50
921;DHT22;447;51.332;6.778;2022-09-12T00:43:53;20.00;90.50
921;DHT22;447;51.332;6.778;2022-09-12T00:51:47;20.00;90.40
921;DHT22;447;51.332;6.778;2022-09-12T00:54:18;20.00;90.40
921;DHT22;447;51.332;6.778;2022-09-12T00:56:50;20.00;90.40
921;DHT22;447;51.332;6.778;2022-09-12T00:59:28;20.00;90.40
921;DHT22;447;51.332;6.778;2022-09-12T01:02:01;20.00;90.40
921;DHT22;447;51.332;6.778;2022-09-12T01:04:35;20.00;90.40
921;DHT22;447;51.332;6.778;2022-09-12T01:07:05;20.00;90.40
921;DHT22;447;51.332;6.778;2022-09-12T01:09:34;19.90;90.30
921;DHT22;447;51.332;6.778;2022-09-12T01:12:04;19.90;90.30
921;DHT22;447;51.332;6.778;2022-09-12T01:14:34;19.90;90.30
921;DHT22;447;51.332;6.778;2022-09-12T01:17:00;19.90;90.30
921;DHT22;447;51.332;6.778;2022-09-12T01:22:59;19.90;90.20
921;DHT22;447;51.332;6.778;2022-09-12T01:36:29;19.80;90.10
921;DHT22;447;51.332;6.778;2022-09-12T01:39:02;19.80;90.10
921;DHT22;447;51.332;6.778;2022-09-12T01:42:04;19.80;90.10
921;DHT22;447;51.332;6.778;2022-09-12T01:48:04;19.80;90.10
921;DHT22;447;51.332;6.778;2022-09-12T01:50:15;19.80;90.10
921;DHT22;447;51.332;6.778;2022-09-12T01:53:00;19.70;90.00
921;DHT22;447;51.332;6.778;2022-09-12T01:55:44;19.70;90.00
921;DHT22;447;51.332;6.778;2022-09-12T01:58:11;19.70;90.00
921;DHT22;447;51.332;6.778;2022-09-12T02:00:51;19.70;90.00
921;DHT22;447;51.332;6.778;2022-09-12T02:03:24;19.70;89.90
921;DHT22;447;51.332;6.778;2022-09-12T02:05:54;19.70;89.90
921;DHT22;447;51.332;6.778;2022-09-12T02:08:37;19.70;89.90
921;DHT22;447;51.332;6.778;2022-09-12T02:11:10;19.70;89.90
921;DHT22;447;51.332;6.778;2022-09-12T02:13:53;19.70;89.80
921;DHT22;447;51.332;6.778;2022-09-12T02:16:30;19.70;89.80
921;DHT22;447;51.332;6.778;2022-09-12T02:19:22;19.60;89.70
921;DHT22;447;51.332;6.778;2022-09-12T02:21:54;19.60;89.60
921;DHT22;447;51.332;6.778;2022-09-12T02:24:24;19.60;89.60
921;DHT22;447;51.332;6.778;2022-09-12T02:27:13;19.60;90.10
921;DHT22;447;51.332;6.778;2022-09-12T02:29:40;19.60;89.50
921;DHT22;447;51.332;6.778;2022-09-12T02:32:33;19.60;89.50
921;DHT22;447;51.332;6.778;2022-09-12T02:35:32;19.50;89.30
921;DHT22;447;51.332;6.778;2022-09-12T02:38:13;19.60;89.40
921;DHT22;447;51.332;6.778;2022-09-12T02:40:42;19.50;89.30
921;DHT22;447;51.332;6.778;2022-09-12T02:43:08;19.50;89.30
921;DHT22;447;51.332;6.778;2022-09-12T02:45:34;19.50;89.30
921;DHT22;447;51.332;6.778;2022-09-12T02:48:06;19.50;89.30
921;DHT22;447;51.332;6.778;2022-09-12T02:50:39;19.50;89.30
921;DHT22;447;51.332;6.778;2022-09-12T02:53:06;19.50;89.20
921;DHT22;447;51.332;6.778;2022-09-12T02:55:34;19.50;89.20
921;DHT22;447;51.332;6.778;2022-09-12T02:58:06;19.40;89.10
921;DHT22;447;51.332;6.778;2022-09-12T03:03:46;19.50;89.00
921;DHT22;447;51.332;6.778;2022-09-12T03:09:58;19.40;88.90
921;DHT22;447;51.332;6.778;2022-09-12T03:24:15;19.30;88.90
921;DHT22;447;51.332;6.778;2022-09-12T03:26:59;19.30;88.90
921;DHT22;447;51.332;6.778;2022-09-12T03:29:29;19.30;88.90
921;DHT22;447;51.332;6.778;2022-09-12T03:31:57;19.30;88.90
921;DHT22;447;51.332;6.778;2022-09-12T03:34:25;19.30;88.90
921;DHT22;447;51.332;6.778;2022-09-12T03:36:52;19.30;88.80
921;DHT22;447;51.332;6.778;2022-09-12T03:39:21;19.30;88.80
921;DHT22;447;51.332;6.778;2022-09-12T03:41:53;19.30;88.80
921;DHT22;447;51.332;6.778;2022-09-12T03:44:23;19.30;88.80
921;DHT22;447;51.332;6.778;2022-09-12T03:46:52;19.30;88.70
921;DHT22;447;51.332;6.778;2022-09-12T03:49:22;19.30;88.60
921;DHT22;447;51.332;6.778;2022-09-12T03:51:48;19.20;88.50
921;DHT22;447;51.332;6.778;2022-09-12T03:54:14;19.20;88.40
921;DHT22;447;51.332;6.778;2022-09-12T03:56:40;19.20;88.40
921;DHT22;447;51.332;6.778;2022-09-12T03:59:06;19.20;88.40
921;DHT22;447;51.332;6.778;2022-09-12T04:01:35;19.20;88.40
921;DHT22;447;51.332;6.778;2022-09-12T04:04:02;19.20;88.40
921;DHT22;447;51.332;6.778;2022-09-12T04:06:31;19.20;88.40
921;DHT22;447;51.332;6.778;2022-09-12T04:08:59;19.20;88.30
921;DHT22;447;51.332;6.778;2022-09-12T04:11:25;19.20;88.30
921;DHT22;447;51.332;6.778;2022-09-12T04:13:51;19.20;88.30
921;DHT22;447;51.332;6.778;2022-09-12T04:16:17;19.20;88.30
921;DHT22;447;51.332;6.778;2022-09-12T04:18:50;19.20;88.30
921;DHT22;447;51.332;6.778;2022-09-12T04:21:20;19.10;88.20
921;DHT22;447;51.332;6.778;2022-09-12T04:23:47;19.10;88.20
921;DHT22;447;51.332;6.778;2022-09-12T04:26:14;19.10;88.10
921;DHT22;447;51.332;6.778;2022-09-12T04:28:45;19.10;88.20
921;DHT22;447;51.332;6.778;2022-09-12T04:31:14;19.10;88.10
921;DHT22;447;51.332;6.778;2022-09-12T04:33:43;19.10;88.10
921;DHT22;447;51.332;6.778;2022-09-12T04:36:16;19.10;88.10
921;DHT22;447;51.332;6.778;2022-09-12T04:38:44;19.10;88.10
921;DHT22;447;51.332;6.778;2022-09-12T04:43:46;19.00;88.00
921;DHT22;447;51.332;6.778;2022-09-12T04:46:19;19.00;88.00
921;DHT22;447;51.332;6.778;2022-09-12T04:48:48;19.00;88.00
921;DHT22;447;51.332;6.778;2022-09-12T04:51:15;19.00;88.00
921;DHT22;447;51.332;6.778;2022-09-12T04:53:48;19.00;88.00
921;DHT22;447;51.332;6.778;2022-09-12T04:56:14;19.00;88.00
921;DHT22;447;51.332;6.778;2022-09-12T04:58:43;19.00;88.00
921;DHT22;447;51.332;6.778;2022-09-12T05:01:14;19.00;88.00
921;DHT22;447;51.332;6.778;2022-09-12T05:03:43;19.00;88.10
921;DHT22;447;51.332;6.778;2022-09-12T05:06:15;18.90;88.00
921;DHT22;447;51.332;6.778;2022-09-12T05:08:45;18.90;88.00
921;DHT22;447;51.332;6.778;2022-09-12T05:11:18;18.90;88.00
921;DHT22;447;51.332;6.778;2022-09-12T05:13:50;18.90;88.00
921;DHT22;447;51.332;6.778;2022-09-12T05:16:17;18.90;88.10
921;DHT22;447;51.332;6.778;2022-09-12T05:18:50;18.90;88.20
921;DHT22;447;51.332;6.778;2022-09-12T05:21:19;18.90;88.20
921;DHT22;447;51.332;6.778;2022-09-12T05:23:46;18.90;88.20
921;DHT22;447;51.332;6.778;2022-09-12T05:26:20;18.90;88.20
921;DHT22;447;51.332;6.778;2022-09-12T05:28:48;18.90;88.30
921;DHT22;447;51.332;6.778;2022-09-12T05:31:23;18.90;88.30
921;DHT22;447;51.332;6.778;2022-09-12T05:33:50;18.90;88.40
921;DHT22;447;51.332;6.778;2022-09-12T05:36:19;18.90;88.50
921;DHT22;447;51.332;6.778;2022-09-12T05:38:48;18.80;88.40
921;DHT22;447;51.332;6.778;2022-09-12T05:41:25;18.80;88.50
921;DHT22;447;51.332;6.778;2022-09-12T05:44:13;18.80;88.50
921;DHT22;447;51.332;6.778;2022-09-12T05:46:43;18.80;88.60
921;DHT22;447;51.332;6.778;2022-09-12T05:49:11;18.80;88.60
921;DHT22;447;51.332;6.778;2022-09-12T05:51:42;18.80;88.80
921;DHT22;447;51.332;6.778;2022-09-12T05:54:10;18.80;88.80
921;DHT22;447;51.332;6.778;2022-09-12T05:56:50;18.80;88.90
921;DHT22;447;51.332;6.778;2022-09-12T05:59:22;18.80;88.90
921;DHT22;447;51.332;6.778;2022-09-12T06:01:51;18.80;89.00
921;DHT22;447;51.332;6.778;2022-09-12T06:04:18;18.80;89.10
921;DHT22;447;51.332;6.778;2022-09-12T06:06:46;18.80;89.20
921;DHT22;447;51.332;6.778;2022-09-12T06:09:14;18.80;89.30
921;DHT22;447;51.332;6.778;2022-09-12T06:11:44;18.80;89.40
921;DHT22;447;51.332;6.778;2022-09-12T06:14:15;18.80;89.40
921;DHT22;447;51.332;6.778;2022-09-12T06:16:41;18.80;89.50
921;DHT22;447;51.332;6.778;2022-09-12T06:19:13;18.80;89.50
921;DHT22;447;51.332;6.778;2022-09-12T06:21:42;18.80;89.60
921;DHT22;447;51.332;6.778;2022-09-12T06:24:33;18.80;89.60
921;DHT22;447;51.332;6.778;2022-09-12T06:26:59;18.80;89.70
921;DHT22;447;51.332;6.778;2022-09-12T06:29:28;18.80;89.80
921;DHT22;447;51.332;6.778;2022-09-12T06:31:54;18.80;89.80
921;DHT22;447;51.332;6.778;2022-09-12T06:34:22;18.80;89.90
921;DHT22;447;51.332;6.778;2022-09-12T06:36:53;18.80;89.90
921;DHT22;447;51.332;6.778;2022-09-12T06:39:20;18.80;90.00
921;DHT22;447;51.332;6.778;2022-09-12T06:41:48;18.80;90.00
921;DHT22;447;51.332;6.778;2022-09-12T06:44:21;18.80;90.00
921;DHT22;447;51.332;6.778;2022-09-12T06:46:47;18.80;90.10
921;DHT22;447;51.332;6.778;2022-09-12T06:49:16;18.80;90.10
921;DHT22;447;51.332;6.778;2022-09-12T06:51:42;18.80;90.10
921;DHT22;447;51.332;6.778;2022-09-12T06:54:12;18.80;90.10
921;DHT22;447;51.332;6.778;2022-09-12T06:56:43;18.80;90.20
921;DHT22;447;51.332;6.778;2022-09-12T06:59:11;18.80;90.20
921;DHT22;447;51.332;6.778;2022-09-12T07:01:38;18.80;90.30
921;DHT22;447;51.332;6.778;2022-09-12T07:04:04;18.80;90.30
921;DHT22;447;51.332;6.778;2022-09-12T07:06:37;18.80;90.30
921;DHT22;447;51.332;6.778;2022-09-12T07:09:12;18.80;90.30
921;DHT22;447;51.332;6.778;2022-09-12T07:11:39;18.80;90.30
921;DHT22;447;51.332;6.778;2022-09-12T07:14:08;18.80;90.40
921;DHT22;447;51.332;6.778;2022-09-12T07:16:35;18.80;90.40
921;DHT22;447;51.332;6.778;2022-09-12T07:19:04;18.80;90.40
921;DHT22;447;51.332;6.778;2022-09-12T07:21:33;18.80;90.50
921;DHT22;447;51.332;6.778;2022-09-12T07:24:05;18.80;90.60
921;DHT22;447;51.332;6.778;2022-09-12T07:26:31;18.80;90.50
921;DHT22;447;51.332;6.778;2022-09-12T07:29:01;18.80;90.60
921;DHT22;447;51.332;6.778;2022-09-12T07:31:30;18.80;90.60
921;DHT22;447;51.332;6.778;2022-09-12T07:33:56;18.80;90.60
921;DHT22;447;51.332;6.778;2022-09-12T07:36:25;18.80;90.60
921;DHT22;447;51.332;6.778;2022-09-12T07:38:58;18.80;91.00
921;DHT22;447;51.332;6.778;2022-09-12T07:41:26;18.80;90.60
921;DHT22;447;51.332;6.778;2022-09-12T07:43:59;18.80;90.60
921;DHT22;447;51.332;6.778;2022-09-12T07:46:26;18.80;90.60
921;DHT22;447;51.332;6.778;2022-09-12T07:48:54;18.80;90.60
921;DHT22;447;51.332;6.778;2022-09-12T07:51:24;18.80;90.70
921;DHT22;447;51.332;6.778;2022-09-12T07:53:52;18.80;90.70
921;DHT22;447;51.332;6.778;2022-09-12T07:56:22;18.80;90.80
921;DHT22;447;51.332;6.778;2022-09-12T07:58:54;18.80;90.80
921;DHT22;447;51.332;6.778;2022-09-12T08:01:21;18.80;90.90
921;DHT22;447;51.332;6.778;2022-09-12T08:03:58;18.80;90.90
921;DHT22;447;51.332;6.778;2022-09-12T08:06:27;18.80;90.90
921;DHT22;447;51.332;6.778;2022-09-12T08:08:59;18.80;90.90
921;DHT22;447;51.332;6.778;2022-09-12T08:11:28;18.80;90.90
921;DHT22;447;51.332;6.778;2022-09-12T08:13:56;18.80;90.90
921;DHT22;447;51.332;6.778;2022-09-12T08:16:26;18.80;90.80
921;DHT22;447;51.332;6.778;2022-09-12T08:18:53;18.90;90.80
921;DHT22;447;51.332;6.778;2022-09-12T08:21:21;18.90;90.90
921;DHT22;447;51.332;6.778;2022-09-12T08:23:55;18.90;90.90
921;DHT22;447;51.332;6.778;2022-09-12T08:26:22;18.90;90.90
921;DHT22;447;51.332;6.778;2022-09-12T08:28:49;18.90;90.90
921;DHT22;447;51.332;6.778;2022-09-12T08:31:17;18.80;90.90
921;DHT22;447;51.332;6.778;2022-09-12T08:33:45;18.90;90.90
921;DHT22;447;51.332;6.778;2022-09-12T08:36:18;18.90;91.00
921;DHT22;447;51.332;6.778;2022-09-12T08:38:49;18.90;91.00
921;DHT22;447;51.332;6.778;2022-09-12T08:42:00;18.90;91.00
921;DHT22;447;51.332;6.778;2022-09-12T08:52:18;18.90;91.40
921;DHT22;447;51.332;6.778;2022-09-12T08:54:51;18.90;91.80
921;DHT22;447;51.332;6.778;2022-09-12T08:57:19;18.90;91.40
921;DHT22;447;51.332;6.778;2022-09-12T08:59:45;18.90;91.50
921;DHT22;447;51.332;6.778;2022-09-12T09:05:45;19.00;91.70
921;DHT22;447;51.332;6.778;2022-09-12T09:13:54;19.00;91.70
921;DHT22;447;51.332;6.778;2022-09-12T09:16:42;19.00;91.60
921;DHT22;447;51.332;6.778;2022-09-12T09:19:29;19.00;91.60
921;DHT22;447;51.332;6.778;2022-09-12T09:22:00;19.00;91.80
921;DHT22;447;51.332;6.778;2022-09-12T09:24:40;19.00;91.80
921;DHT22;447;51.332;6.778;2022-09-12T09:27:20;19.10;91.90
921;DHT22;447;51.332;6.778;2022-09-12T09:29:52;19.10;91.90
921;DHT22;447;51.332;6.778;2022-09-12T09:32:30;19.10;92.00
921;DHT22;447;51.332;6.778;2022-09-12T09:35:10;19.20;92.00
921;DHT22;447;51.332;6.778;2022-09-12T09:37:41;19.10;92.10
921;DHT22;447;51.332;6.778;2022-09-12T09:40:26;19.20;92.20
921;DHT22;447;51.332;6.778;2022-09-12T09:45:24;19.20;92.10
921;DHT22;447;51.332;6.778;2022-09-12T09:50:36;19.30;92.20
921;DHT22;447;51.332;6.778;2022-09-12T09:53:15;19.30;92.40
921;DHT22;447;51.332;6.778;2022-09-12T09:55:48;19.40;92.50
921;DHT22;447;51.332;6.778;2022-09-12T09:58:34;19.40;92.60
921;DHT22;447;51.332;6.778;2022-09-12T10:01:13;19.40;92.60
921;DHT22;447;51.332;6.778;2022-09-12T10:03:52;19.50;92.70
921;DHT22;447;51.332;6.778;2022-09-12T10:08:49;19.50;92.60
921;DHT22;447;51.332;6.778;2022-09-12T10:11:24;19.60;93.10
921;DHT22;447;51.332;6.778;2022-09-12T10:13:56;19.70;93.60
921;DHT22;447;51.332;6.778;2022-09-12T10:16:26;19.70;93.60
921;DHT22;447;51.332;6.778;2022-09-12T10:18:56;19.70;93.40
921;DHT22;447;51.332;6.778;2022-09-12T10:21:38;19.80;93.20
921;DHT22;447;51.332;6.778;2022-09-12T10:32:41;19.90;92.80
921;DHT22;447;51.332;6.778;2022-09-12T10:35:17;19.90;92.70
921;DHT22;447;51.332;6.778;2022-09-12T10:40:26;20.00;92.60
921;DHT22;447;51.332;6.778;2022-09-12T10:42:58;20.00;92.70
921;DHT22;447;51.332;6.778;2022-09-12T10:45:28;20.10;92.60
921;DHT22;447;51.332;6.778;2022-09-12T10:48:01;20.10;92.60
921;DHT22;447;51.332;6.778;2022-09-12T10:50:41;20.10;92.50
921;DHT22;447;51.332;6.778;2022-09-12T10:56:11;20.30;92.60
921;DHT22;447;51.332;6.778;2022-09-12T11:07:01;20.50;91.90
921;DHT22;447;51.332;6.778;2022-09-12T11:34:07;20.80;91.30
921;DHT22;447;51.332;6.778;2022-09-12T11:39:38;20.90;91.20
921;DHT22;447;51.332;6.778;2022-09-12T11:42:14;21.00;91.10
921;DHT22;447;51.332;6.778;2022-09-12T11:44:59;21.00;91.10
921;DHT22;447;51.332;6.778;2022-09-12T11:47:33;21.10;91.10
921;DHT22;447;51.332;6.778;2022-09-12T11:50:03;21.10;91.10
921;DHT22;447;51.332;6.778;2022-09-12T11:52:36;21.10;91.00
921;DHT22;447;51.332;6.778;2022-09-12T11:55:08;21.20;91.10
921;DHT22;447;51.332;6.778;2022-09-12T11:57:51;21.20;91.00
921;DHT22;447;51.332;6.778;2022-09-12T12:01:07;21.20;90.90
921;DHT22;447;51.332;6.778;2022-09-12T12:03:40;21.20;90.80
921;DHT22;447;51.332;6.778;2022-09-12T12:08:47;21.30;90.50
921;DHT22;447;51.332;6.778;2022-09-12T12:11:29;21.30;90.40
921;DHT22;447;51.332;6.778;2022-09-12T12:14:20;21.30;90.30
921;DHT22;447;51.332;6.778;2022-09-12T12:16:47;21.40;90.40
921;DHT22;447;51.332;6.778;2022-09-12T12:19:37;21.40;90.30
921;DHT22;447;51.332;6.778;2022-09-12T12:22:19;21.40;90.20
921;DHT22;447;51.332;6.778;2022-09-12T12:27:58;21.50;90.00
921;DHT22;447;51.332;6.778;2022-09-12T12:38:27;21.60;89.20
921;DHT22;447;51.332;6.778;2022-09-12T12:43:51;21.70;89.00
921;DHT22;447;51.332;6.778;2022-09-12T12:46:27;21.70;88.90
921;DHT22;447;51.332;6.778;2022-09-12T12:53:54;21.80;88.80
921;DHT22;447;51.332;6.778;2022-09-12T12:56:39;21.90;88.60
921;DHT22;447;51.332;6.778;2022-09-12T12:59:21;21.90;88.10
921;DHT22;447;51.332;6.778;2022-09-12T13:01:53;21.90;87.90
921;DHT22;447;51.332;6.778;2022-09-12T13:04:23;22.00;87.90
921;DHT22;447;51.332;6.778;2022-09-12T13:07:08;22.00;87.80
921;DHT22;447;51.332;6.778;2022-09-12T13:09:44;22.00;87.60
921;DHT22;447;51.332;6.778;2022-09-12T13:12:33;22.10;87.40
921;DHT22;447;51.332;6.778;2022-09-12T13:15:02;22.10;86.90
921;DHT22;447;51.332;6.778;2022-09-12T13:17:43;22.10;86.90
921;DHT22;447;51.332;6.778;2022-09-12T13:22:48;22.20;87.00
921;DHT22;447;51.332;6.778;2022-09-12T13:25:29;22.20;86.70
921;DHT22;447;51.332;6.778;2022-09-12T13:28:01;22.20;86.50
921;DHT22;447;51.332;6.778;2022-09-12T13:30:32;22.30;86.50
921;DHT22;447;51.332;6.778;2022-09-12T13:33:12;22.30;86.50
921;DHT22;447;51.332;6.778;2022-09-12T13:43:54;22.40;85.70
921;DHT22;447;51.332;6.778;2022-09-12T13:46:29;22.40;85.70
921;DHT22;447;51.332;6.778;2022-09-12T13:48:58;22.40;86.50
921;DHT22;447;51.332;6.778;2022-09-12T13:51:29;22.50;85.60
921;DHT22;447;51.332;6.778;2022-09-12T13:54:03;22.50;85.50
921;DHT22;447;51.332;6.778;2022-09-12T13:56:30;22.50;84.90
921;DHT22;447;51.332;6.778;2022-09-12T13:59:03;22.60;84.60
921;DHT22;447;51.332;6.778;2022-09-12T14:01:40;22.60;84.50
921;DHT22;447;51.332;6.778;2022-09-12T14:04:17;22.60;84.40
921;DHT22;447;51.332;6.778;2022-09-12T14:07:15;22.60;84.50
921;DHT22;447;51.332;6.778;2022-09-12T14:09:52;22.70;84.60
921;DHT22;447;51.332;6.778;2022-09-12T14:12:30;22.70;84.60
921;DHT22;447;51.332;6.778;2022-09-12T14:14:57;22.70;84.50
921;DHT22;447;51.332;6.778;2022-09-12T14:17:30;22.70;84.30
921;DHT22;447;51.332;6.778;2022-09-12T14:20:00;22.80;83.90
921;DHT22;447;51.332;6.778;2022-09-12T14:22:35;22.80;83.40
921;DHT22;447;51.332;6.778;2022-09-12T14:25:03;22.80;83.40
921;DHT22;447;51.332;6.778;2022-09-12T14:27:45;22.90;83.80
921;DHT22;447;51.332;6.778;2022-09-12T14:30:26;22.90;83.80
921;DHT22;447;51.332;6.778;2022-09-12T14:33:44;22.90;84.60
921;DHT22;447;51.332;6.778;2022-09-12T14:39:02;23.00;83.60
921;DHT22;447;51.332;6.778;2022-09-12T14:41:37;23.00;83.50
921;DHT22;447;51.332;6.778;2022-09-12T14:44:08;23.00;83.30
921;DHT22;447;51.332;6.778;2022-09-12T14:46:37;23.00;83.20
921;DHT22;447;51.332;6.778;2022-09-12T14:57:06;23.10;82.90
921;DHT22;447;51.332;6.778;2022-09-12T14:59:36;23.10;82.80
921;DHT22;447;51.332;6.778;2022-09-12T15:07:34;23.20;82.90
921;DHT22;447;51.332;6.778;2022-09-12T15:10:35;23.20;82.80
921;DHT22;447;51.332;6.778;2022-09-12T15:15:39;23.30;82.70
921;DHT22;447;51.332;6.778;2022-09-12T15:18:05;23.30;82.70
921;DHT22;447;51.332;6.778;2022-09-12T15:20:56;23.30;82.60
921;DHT22;447;51.332;6.778;2022-09-12T15:26:01;23.30;82.40
921;DHT22;447;51.332;6.778;2022-09-12T15:28:29;23.30;82.50
921;DHT22;447;51.332;6.778;2022-09-12T15:30:56;23.40;82.50
921;DHT22;447;51.332;6.778;2022-09-12T15:33:23;23.40;82.50
921;DHT22;447;51.332;6.778;2022-09-12T15:35:50;23.40;82.40
921;DHT22;447;51.332;6.778;2022-09-12T15:38:21;23.40;82.40
921;DHT22;447;51.332;6.778;2022-09-12T15:41:01;23.40;82.40
921;DHT22;447;51.332;6.778;2022-09-12T15:43:29;23.40;82.40
921;DHT22;447;51.332;6.778;2022-09-12T15:45:55;23.40;82.30
921;DHT22;447;51.332;6.778;2022-09-12T15:48:23;23.50;82.40
921;DHT22;447;51.332;6.778;2022-09-12T15:50:50;23.50;82.30
921;DHT22;447;51.332;6.778;2022-09-12T15:53:16;23.50;82.30
921;DHT22;447;51.332;6.778;2022-09-12T15:55:43;23.50;82.30
921;DHT22;447;51.332;6.778;2022-09-12T15:58:11;23.50;82.20
921;DHT22;447;51.332;6.778;2022-09-12T16:00:42;23.50;82.20
921;DHT22;447;51.332;6.778;2022-09-12T16:03:25;23.50;82.10
921;DHT22;447;51.332;6.778;2022-09-12T16:05:58;23.50;82.10
921;DHT22;447;51.332;6.778;2022-09-12T16:08:27;23.50;82.00
921;DHT22;447;51.332;6.778;2022-09-12T16:11:16;23.50;82.10
921;DHT22;447;51.332;6.778;2022-09-12T16:13:45;23.60;82.10
921;DHT22;447;51.332;6.778;2022-09-12T16:16:15;23.60;82.10
921;DHT22;447;51.332;6.778;2022-09-12T16:18:41;23.60;82.10
921;DHT22;447;51.332;6.778;2022-09-12T16:21:07;23.60;82.00
921;DHT22;447;51.332;6.778;2022-09-12T16:23:33;23.60;81.90
921;DHT22;447;51.332;6.778;2022-09-12T16:26:01;23.60;81.90
921;DHT22;447;51.332;6.778;2022-09-12T16:28:33;23.60;81.90
921;DHT22;447;51.332;6.778;2022-09-12T16:31:02;23.60;81.90
921;DHT22;447;51.332;6.778;2022-09-12T16:33:29;23.60;81.90
921;DHT22;447;51.332;6.778;2022-09-12T16:36:03;23.70;82.20
921;DHT22;447;51.332;6.778;2022-09-12T16:38:32;23.70;82.30
921;DHT22;447;51.332;6.778;2022-09-12T16:41:04;23.60;82.20
921;DHT22;447;51.332;6.778;2022-09-12T16:43:33;23.60;82.30
921;DHT22;447;51.332;6.778;2022-09-12T16:48:30;23.60;82.40
921;DHT22;447;51.332;6.778;2022-09-12T16:51:00;23.60;82.50
921;DHT22;447;51.332;6.778;2022-09-12T16:53:30;23.60;82.50
921;DHT22;447;51.332;6.778;2022-09-12T16:55:56;23.60;82.50
921;DHT22;447;51.332;6.778;2022-09-12T16:58:22;23.60;82.40
921;DHT22;447;51.332;6.778;2022-09-12T17:00:48;23.60;82.50
921;DHT22;447;51.332;6.778;2022-09-12T17:03:15;23.60;82.40
921;DHT22;447;51.332;6.778;2022-09-12T17:05:42;23.60;82.40
921;DHT22;447;51.332;6.778;2022-09-12T17:08:32;23.60;82.50
921;DHT22;447;51.332;6.778;2022-09-12T17:11:08;23.60;82.60
921;DHT22;447;51.332;6.778;2022-09-12T17:13:38;23.60;82.70
921;DHT22;447;51.332;6.778;2022-09-12T17:16:13;23.60;83.60
921;DHT22;447;51.332;6.778;2022-09-12T17:18:41;23.60;83.00
921;DHT22;447;51.332;6.778;2022-09-12T17:21:08;23.50;82.90
921;DHT22;447;51.332;6.778;2022-09-12T17:23:35;23.50;82.80
921;DHT22;447;51.332;6.778;2022-09-12T17:26:01;23.50;82.90
921;DHT22;447;51.332;6.778;2022-09-12T17:28:27;23.50;82.90
921;DHT22;447;51.332;6.778;2022-09-12T17:31:07;23.50;83.00
921;DHT22;447;51.332;6.778;2022-09-12T17:33:36;23.50;83.80
921;DHT22;447;51.332;6.778;2022-09-12T17:36:12;23.50;83.10
921;DHT22;447;51.332;6.778;2022-09-12T17:38:40;23.50;83.10
921;DHT22;447;51.332;6.778;2022-09-12T17:41:17;23.50;83.20
921;DHT22;447;51.332;6.778;2022-09-12T17:43:45;23.50;83.20
921;DHT22;447;51.332;6.778;2022-09-12T17:46:19;23.50;83.20
921;DHT22;447;51.332;6.778;2022-09-12T17:48:50;23.50;83.20
921;DHT22;447;51.332;6.778;2022-09-12T17:51:17;23.50;83.30
921;DHT22;447;51.332;6.778;2022-09-12T17:53:47;23.40;83.20
921;DHT22;447;51.332;6.778;2022-09-12T17:56:15;23.40;83.40
921;DHT22;447;51.332;6.778;2022-09-12T17:58:41;23.40;83.60
921;DHT22;447;51.332;6.778;2022-09-12T18:01:12;23.40;83.50
921;DHT22;447;51.332;6.778;2022-09-12T18:03:58;23.40;83.50
921;DHT22;447;51.332;6.778;2022-09-12T18:06:31;23.40;83.60
921;DHT22;447;51.332;6.778;2022-09-12T18:09:01;23.40;83.80
921;DHT22;447;51.332;6.778;2022-09-12T18:11:28;23.40;83.80
921;DHT22;447;51.332;6.778;2022-09-12T18:13:54;23.40;83.90
921;DHT22;447;51.332;6.778;2022-09-12T18:16:20;23.40;84.10
921;DHT22;447;51.332;6.778;2022-09-12T18:18:46;23.30;84.20
921;DHT22;447;51.332;6.778;2022-09-12T18:21:14;23.30;84.30
921;DHT22;447;51.332;6.778;2022-09-12T18:23:43;23.30;84.50
921;DHT22;447;51.332;6.778;2022-09-12T18:26:12;23.30;84.60
921;DHT22;447;51.332;6.778;2022-09-12T18:28:43;23.30;84.80
921;DHT22;447;51.332;6.778;2022-09-12T18:31:12;23.30;84.80
921;DHT22;447;51.332;6.778;2022-09-12T18:33:39;23.30;85.00
921;DHT22;447;51.332;6.778;2022-09-12T18:36:10;23.30;85.00
921;DHT22;447;51.332;6.778;2022-09-12T18:38:39;23.30;85.00
921;DHT22;447;51.332;6.778;2022-09-12T18:41:26;23.30;84.90
921;DHT22;447;51.332;6.778;2022-09-12T18:43:58;23.30;84.80
921;DHT22;447;51.332;6.778;2022-09-12T18:46:28;23.20;84.60
921;DHT22;447;51.332;6.778;2022-09-12T18:48:57;23.20;84.70
921;DHT22;447;51.332;6.778;2022-09-12T18:51:31;23.20;84.80
921;DHT22;447;51.332;6.778;2022-09-12T18:54:04;23.20;85.00
921;DHT22;447;51.332;6.778;2022-09-12T18:56:33;23.20;85.10
921;DHT22;447;51.332;6.778;2022-09-12T18:59:00;23.20;85.20
921;DHT22;447;51.332;6.778;2022-09-12T19:01:32;23.20;85.30
921;DHT22;447;51.332;6.778;2022-09-12T19:03:59;23.20;85.30
921;DHT22;447;51.332;6.778;2022-09-12T19:06:37;23.20;85.40
921;DHT22;447;51.332;6.778;2022-09-12T19:09:04;23.20;85.50
921;DHT22;447;51.332;6.778;2022-09-12T19:11:32;23.20;85.50
921;DHT22;447;51.332;6.778;2022-09-12T19:14:23;23.10;85.40
921;DHT22;447;51.332;6.778;2022-09-12T19:16:52;23.10;85.40
921;DHT22;447;51.332;6.778;2022-09-12T19:19:20;23.10;85.40
921;DHT22;447;51.332;6.778;2022-09-12T19:21:46;23.10;85.50
921;DHT22;447;51.332;6.778;2022-09-12T19:24:12;23.10;85.60
921;DHT22;447;51.332;6.778;2022-09-12T19:26:39;23.10;85.60
921;DHT22;447;51.332;6.778;2022-09-12T19:29:06;23.10;85.60
921;DHT22;447;51.332;6.778;2022-09-12T19:31:33;23.10;85.70
921;DHT22;447;51.332;6.778;2022-09-12T19:34:05;23.10;85.70
921;DHT22;447;51.332;6.778;2022-09-12T19:36:32;23.10;85.70
921;DHT22;447;51.332;6.778;2022-09-12T19:38:59;23.00;85.60
921;DHT22;447;51.332;6.778;2022-09-12T19:41:30;23.10;85.70
921;DHT22;447;51.332;6.778;2022-09-12T19:43:58;23.00;85.60
921;DHT22;447;51.332;6.778;2022-09-12T19:46:27;23.00;85.70
921;DHT22;447;51.332;6.778;2022-09-12T19:48:53;23.00;85.70
921;DHT22;447;51.332;6.778;2022-09-12T19:51:20;23.00;85.70
921;DHT22;447;51.332;6.778;2022-09-12T19:53:50;23.00;85.70
921;DHT22;447;51.332;6.778;2022-09-12T19:56:16;23.00;85.80
921;DHT22;447;51.332;6.778;2022-09-12T19:58:46;23.00;85.80
921;DHT22;447;51.332;6.778;2022-09-12T20:01:23;23.00;85.80